sensor_id;sensor_type;location;lat;lon;timestamp;pressure;altitude;pressure_sealevel;temperature;humidity
62849;BME280;48941;49.516;8.286;2023-04-01T00:00:32;98827.03;;;10.57;72.64
62849;BME280;48941;49.516;8.286;2023-04-01T00:03:00;98824.06;;;10.61;72.45
62849;BME280;48941;49.516;8.286;2023-04-01T00:05:27;98835.88;;;10.66;73.37
62849;BME280;48941;49.516;8.286;2023-04-01T00:07:55;98832.38;;;10.57;73.18
62849;BME280;48941;49.516;8.286;2023-04-01T00:10:23;98826.72;;;10.61;73.26
62849;BME280;48941;49.516;8.286;2023-04-01T00:12:53;98824.38;;;10.57;73.42
62849;BME280;48941;49.516;8.286;2023-04-01T00:15:21;98826.06;;;10.59;72.76
62849;BME280;48941;49.516;8.286;2023-04-01T00:17:48;98819.56;;;10.61;73.55
62849;BME280;48941;49.516;8.286;2023-04-01T00:20:16;98825.03;;;10.51;74.00
62849;BME280;48941;49.516;8.286;2023-04-01T00:22:44;98829.16;;;10.46;74.19
62849;BME280;48941;49.516;8.286;2023-04-01T00:25:12;98827.81;;;10.42;74.27
62849;BME280;48941;49.516;8.286;2023-04-01T00:27:40;98825.06;;;10.60;73.34
62849;BME280;48941;49.516;8.286;2023-04-01T00:30:10;98822.53;;;10.58;73.21
62849;BME280;48941;49.516;8.286;2023-04-01T00:32:38;98833.00;;;10.51;74.18
62849;BME280;48941;49.516;8.286;2023-04-01T00:35:06;98833.16;;;10.50;73.89
62849;BME280;48941;49.516;8.286;2023-04-01T00:37:35;98821.53;;;10.51;73.63
62849;BME280;48941;49.516;8.286;2023-04-01T00:40:04;98821.06;;;10.64;72.69
62849;BME280;48941;49.516;8.286;2023-04-01T00:42:33;98827.72;;;10.60;73.25
62849;BME280;48941;49.516;8.286;2023-04-01T00:45:27;98820.56;;;10.60;73.08
62849;BME280;48941;49.516;8.286;2023-04-01T00:47:57;98839.84;;;10.62;73.13
62849;BME280;48941;49.516;8.286;2023-04-01T00:50:28;98834.34;;;10.55;73.08
62849;BME280;48941;49.516;8.286;2023-04-01T00:52:59;98831.03;;;10.53;73.37
62849;BME280;48941;49.516;8.286;2023-04-01T00:55:29;98827.00;;;10.49;73.66
62849;BME280;48941;49.516;8.286;2023-04-01T00:58:00;98837.03;;;10.55;73.70
62849;BME280;48941;49.516;8.286;2023-04-01T01:00:30;98833.88;;;10.60;73.17
62849;BME280;48941;49.516;8.286;2023-04-01T01:02:58;98835.03;;;10.57;73.33
62849;BME280;48941;49.516;8.286;2023-04-01T01:05:34;98837.66;;;10.49;73.75
62849;BME280;48941;49.516;8.286;2023-04-01T01:08:20;98832.19;;;10.51;73.51
62849;BME280;48941;49.516;8.286;2023-04-01T01:10:53;98831.19;;;10.52;73.26
62849;BME280;48941;49.516;8.286;2023-04-01T01:13:24;98824.88;;;10.53;73.17
62849;BME280;48941;49.516;8.286;2023-04-01T01:15:57;98833.38;;;10.56;72.96
62849;BME280;48941;49.516;8.286;2023-04-01T01:18:33;98834.50;;;10.54;72.52
62849;BME280;48941;49.516;8.286;2023-04-01T01:21:25;98825.19;;;10.50;73.29
62849;BME280;48941;49.516;8.286;2023-04-01T01:24:08;98818.19;;;10.49;73.28
62849;BME280;48941;49.516;8.286;2023-04-01T01:26:59;98826.97;;;10.41;73.85
62849;BME280;48941;49.516;8.286;2023-04-01T01:29:48;98815.72;;;10.55;73.34
62849;BME280;48941;49.516;8.286;2023-04-01T01:32:32;98818.88;;;10.51;73.38
62849;BME280;48941;49.516;8.286;2023-04-01T01:35:14;98815.38;;;10.50;72.43
62849;BME280;48941;49.516;8.286;2023-04-01T01:37:45;98831.03;;;10.53;72.97
62849;BME280;48941;49.516;8.286;2023-04-01T01:40:15;98828.88;;;10.57;72.42
62849;BME280;48941;49.516;8.286;2023-04-01T01:42:46;98824.03;;;10.52;73.09
62849;BME280;48941;49.516;8.286;2023-04-01T01:45:16;98811.22;;;10.56;72.65
62849;BME280;48941;49.516;8.286;2023-04-01T01:47:47;98807.22;;;10.52;72.72
62849;BME280;48941;49.516;8.286;2023-04-01T01:50:19;98818.22;;;10.57;72.84
62849;BME280;48941;49.516;8.286;2023-04-01T01:52:47;98809.88;;;10.52;73.35
62849;BME280;48941;49.516;8.286;2023-04-01T01:55:26;98808.38;;;10.49;73.70
62849;BME280;48941;49.516;8.286;2023-04-01T01:57:56;98821.69;;;10.49;73.88
62849;BME280;48941;49.516;8.286;2023-04-01T02:00:25;98812.88;;;10.49;74.14
62849;BME280;48941;49.516;8.286;2023-04-01T02:02:53;98821.19;;;10.54;74.95
62849;BME280;48941;49.516;8.286;2023-04-01T02:05:25;98815.53;;;10.49;75.48
62849;BME280;48941;49.516;8.286;2023-04-01T02:08:01;98808.53;;;10.48;75.88
62849;BME280;48941;49.516;8.286;2023-04-01T02:10:34;98816.66;;;10.46;75.92
62849;BME280;48941;49.516;8.286;2023-04-01T02:13:08;98808.69;;;10.46;76.22
62849;BME280;48941;49.516;8.286;2023-04-01T02:15:42;98812.50;;;10.44;76.84
62849;BME280;48941;49.516;8.286;2023-04-01T02:18:13;98830.97;;;10.37;77.73
62849;BME280;48941;49.516;8.286;2023-04-01T02:20:44;98827.13;;;10.40;78.21
62849;BME280;48941;49.516;8.286;2023-04-01T02:23:12;98823.66;;;10.39;79.60
62849;BME280;48941;49.516;8.286;2023-04-01T02:25:41;98831.84;;;10.20;81.43
62849;BME280;48941;49.516;8.286;2023-04-01T02:28:10;98816.13;;;10.08;82.65
62849;BME280;48941;49.516;8.286;2023-04-01T02:30:43;98819.75;;;9.99;83.14
62849;BME280;48941;49.516;8.286;2023-04-01T02:33:12;98820.53;;;9.91;83.30
62849;BME280;48941;49.516;8.286;2023-04-01T02:35:39;98825.88;;;9.91;82.73
62849;BME280;48941;49.516;8.286;2023-04-01T02:38:09;98817.41;;;9.96;81.71
62849;BME280;48941;49.516;8.286;2023-04-01T02:40:46;98824.56;;;9.95;80.52
62849;BME280;48941;49.516;8.286;2023-04-01T02:43:14;98820.53;;;9.91;80.92
62849;BME280;48941;49.516;8.286;2023-04-01T02:45:42;98829.19;;;9.93;81.24
62849;BME280;48941;49.516;8.286;2023-04-01T02:48:10;98826.41;;;9.95;80.41
62849;BME280;48941;49.516;8.286;2023-04-01T02:50:39;98818.88;;;9.90;80.11
62849;BME280;48941;49.516;8.286;2023-04-01T02:53:06;98824.03;;;9.92;80.25
62849;BME280;48941;49.516;8.286;2023-04-01T02:55:35;98820.69;;;9.90;79.84
62849;BME280;48941;49.516;8.286;2023-04-01T02:58:03;98803.03;;;10.07;79.05
62849;BME280;48941;49.516;8.286;2023-04-01T03:00:31;98818.13;;;10.06;79.24
62849;BME280;48941;49.516;8.286;2023-04-01T03:02:59;98822.47;;;10.07;79.67
62849;BME280;48941;49.516;8.286;2023-04-01T03:05:27;98806.47;;;9.99;79.44
62849;BME280;48941;49.516;8.286;2023-04-01T03:07:55;98810.59;;;9.93;80.23
62849;BME280;48941;49.516;8.286;2023-04-01T03:10:22;98809.00;;;10.09;79.12
62849;BME280;48941;49.516;8.286;2023-04-01T03:12:51;98808.63;;;10.04;79.25
62849;BME280;48941;49.516;8.286;2023-04-01T03:15:19;98804.78;;;9.98;79.90
62849;BME280;48941;49.516;8.286;2023-04-01T03:17:47;98812.09;;;9.96;79.72
62849;BME280;48941;49.516;8.286;2023-04-01T03:20:15;98803.03;;;10.07;78.60
62849;BME280;48941;49.516;8.286;2023-04-01T03:22:43;98797.22;;;10.11;78.95
62849;BME280;48941;49.516;8.286;2023-04-01T03:25:12;98809.34;;;10.14;77.72
62849;BME280;48941;49.516;8.286;2023-04-01T03:27:40;98810.50;;;10.11;77.35
62849;BME280;48941;49.516;8.286;2023-04-01T03:30:10;98809.06;;;10.17;77.80
62849;BME280;48941;49.516;8.286;2023-04-01T03:32:38;98802.94;;;10.25;77.29
62849;BME280;48941;49.516;8.286;2023-04-01T03:35:06;98808.38;;;10.15;77.78
62849;BME280;48941;49.516;8.286;2023-04-01T03:37:36;98805.38;;;10.18;78.24
62849;BME280;48941;49.516;8.286;2023-04-01T03:40:05;98818.97;;;10.07;78.66
62849;BME280;48941;49.516;8.286;2023-04-01T03:42:33;98812.31;;;10.03;78.92
62849;BME280;48941;49.516;8.286;2023-04-01T03:45:02;98813.19;;;10.11;77.83
62849;BME280;48941;49.516;8.286;2023-04-01T03:47:31;98809.06;;;10.17;77.83
62849;BME280;48941;49.516;8.286;2023-04-01T03:49:59;98797.25;;;10.20;77.86
62849;BME280;48941;49.516;8.286;2023-04-01T03:52:26;98811.34;;;10.12;77.82
62849;BME280;48941;49.516;8.286;2023-04-01T03:54:54;98803.41;;;10.20;77.12
62849;BME280;48941;49.516;8.286;2023-04-01T03:57:22;98810.25;;;10.23;77.09
62849;BME280;48941;49.516;8.286;2023-04-01T03:59:50;98802.09;;;10.24;76.96
62849;BME280;48941;49.516;8.286;2023-04-01T04:02:18;98804.56;;;10.17;77.90
62849;BME280;48941;49.516;8.286;2023-04-01T04:04:47;98798.94;;;10.21;78.05
62849;BME280;48941;49.516;8.286;2023-04-01T04:07:15;98791.94;;;10.20;78.42
62849;BME280;48941;49.516;8.286;2023-04-01T04:09:42;98795.22;;;10.13;78.29
62849;BME280;48941;49.516;8.286;2023-04-01T04:12:10;98802.56;;;10.20;78.08
62849;BME280;48941;49.516;8.286;2023-04-01T04:14:38;98808.03;;;10.18;78.53
62849;BME280;48941;49.516;8.286;2023-04-01T04:17:06;98797.91;;;10.22;77.31
62849;BME280;48941;49.516;8.286;2023-04-01T04:19:34;98787.09;;;10.15;77.35
62849;BME280;48941;49.516;8.286;2023-04-01T04:22:03;98801.59;;;10.21;77.01
62849;BME280;48941;49.516;8.286;2023-04-01T04:24:31;98801.41;;;10.22;77.17
62849;BME280;48941;49.516;8.286;2023-04-01T04:26:58;98793.13;;;10.25;77.08
62849;BME280;48941;49.516;8.286;2023-04-01T04:29:26;98799.22;;;10.17;77.26
62849;BME280;48941;49.516;8.286;2023-04-01T04:31:54;98797.41;;;10.18;77.54
62849;BME280;48941;49.516;8.286;2023-04-01T04:34:22;98795.44;;;10.28;76.97
62849;BME280;48941;49.516;8.286;2023-04-01T04:36:50;98803.63;;;10.27;76.29
62849;BME280;48941;49.516;8.286;2023-04-01T04:39:19;98785.72;;;10.37;76.03
62849;BME280;48941;49.516;8.286;2023-04-01T04:41:46;98793.56;;;10.39;76.19
62849;BME280;48941;49.516;8.286;2023-04-01T04:44:14;98799.69;;;10.39;75.85
62849;BME280;48941;49.516;8.286;2023-04-01T04:46:42;98800.22;;;10.43;76.18
62849;BME280;48941;49.516;8.286;2023-04-01T04:49:10;98799.03;;;10.37;76.09
62849;BME280;48941;49.516;8.286;2023-04-01T04:51:37;98814.63;;;10.32;76.34
62849;BME280;48941;49.516;8.286;2023-04-01T04:54:06;98812.34;;;10.37;76.49
62849;BME280;48941;49.516;8.286;2023-04-01T04:56:35;98805.00;;;10.31;76.59
62849;BME280;48941;49.516;8.286;2023-04-01T04:59:03;98811.00;;;10.33;76.89
62849;BME280;48941;49.516;8.286;2023-04-01T05:01:31;98816.06;;;10.26;77.56
62849;BME280;48941;49.516;8.286;2023-04-01T05:03:59;98817.38;;;10.22;78.36
62849;BME280;48941;49.516;8.286;2023-04-01T05:06:27;98815.56;;;10.23;78.22
62849;BME280;48941;49.516;8.286;2023-04-01T05:08:56;98807.94;;;10.28;77.54
62849;BME280;48941;49.516;8.286;2023-04-01T05:11:24;98816.66;;;10.38;77.14
62849;BME280;48941;49.516;8.286;2023-04-01T05:13:53;98807.03;;;10.45;76.88
62849;BME280;48941;49.516;8.286;2023-04-01T05:16:21;98817.53;;;10.47;77.02
62849;BME280;48941;49.516;8.286;2023-04-01T05:18:49;98805.31;;;10.36;78.28
62849;BME280;48941;49.516;8.286;2023-04-01T05:21:16;98802.41;;;10.21;78.89
62849;BME280;48941;49.516;8.286;2023-04-01T05:23:44;98798.59;;;10.24;79.11
62849;BME280;48941;49.516;8.286;2023-04-01T05:26:13;98799.91;;;10.20;79.45
62849;BME280;48941;49.516;8.286;2023-04-01T05:28:44;98792.59;;;10.22;79.00
62849;BME280;48941;49.516;8.286;2023-04-01T05:31:13;98788.78;;;10.24;78.81
62849;BME280;48941;49.516;8.286;2023-04-01T05:33:41;98792.88;;;10.10;78.90
62849;BME280;48941;49.516;8.286;2023-04-01T05:36:10;98780.88;;;10.06;80.13
62849;BME280;48941;49.516;8.286;2023-04-01T05:38:38;98787.41;;;10.12;80.50
62849;BME280;48941;49.516;8.286;2023-04-01T05:41:06;98789.88;;;10.05;80.75
62849;BME280;48941;49.516;8.286;2023-04-01T05:43:35;98784.22;;;10.08;80.47
62849;BME280;48941;49.516;8.286;2023-04-01T05:46:03;98782.88;;;10.04;80.78
62849;BME280;48941;49.516;8.286;2023-04-01T05:48:32;98784.88;;;10.10;80.93
62849;BME280;48941;49.516;8.286;2023-04-01T05:51:01;98784.84;;;10.02;81.89
62849;BME280;48941;49.516;8.286;2023-04-01T05:53:29;98784.66;;;9.95;81.92
62849;BME280;48941;49.516;8.286;2023-04-01T05:55:57;98787.84;;;9.99;82.12
62849;BME280;48941;49.516;8.286;2023-04-01T05:58:29;98787.16;;;9.97;81.38
62849;BME280;48941;49.516;8.286;2023-04-01T06:01:00;98784.50;;;9.97;81.22
62849;BME280;48941;49.516;8.286;2023-04-01T06:03:39;98787.06;;;10.07;80.67
62849;BME280;48941;49.516;8.286;2023-04-01T06:06:12;98788.66;;;10.00;80.67
62849;BME280;48941;49.516;8.286;2023-04-01T06:08:42;98788.38;;;10.03;81.25
62849;BME280;48941;49.516;8.286;2023-04-01T06:11:22;98778.06;;;10.08;79.92
62849;BME280;48941;49.516;8.286;2023-04-01T06:14:01;98794.38;;;10.05;78.94
62849;BME280;48941;49.516;8.286;2023-04-01T06:19:29;98784.22;;;10.08;78.59
62849;BME280;48941;49.516;8.286;2023-04-01T06:22:42;98788.03;;;10.06;78.14
62849;BME280;48941;49.516;8.286;2023-04-01T06:25:30;98780.25;;;10.12;79.02
62849;BME280;48941;49.516;8.286;2023-04-01T06:28:22;98776.97;;;10.19;77.80
62849;BME280;48941;49.516;8.286;2023-04-01T06:30:59;98779.44;;;10.20;77.61
62849;BME280;48941;49.516;8.286;2023-04-01T06:33:36;98771.47;;;10.20;78.10
62849;BME280;48941;49.516;8.286;2023-04-01T06:39:12;98768.47;;;10.15;79.64
62849;BME280;48941;49.516;8.286;2023-04-01T06:42:17;98775.56;;;10.06;80.40
62849;BME280;48941;49.516;8.286;2023-04-01T06:44:55;98781.56;;;10.08;80.56
62849;BME280;48941;49.516;8.286;2023-04-01T06:47:36;98779.91;;;10.07;80.85
62849;BME280;48941;49.516;8.286;2023-04-01T06:50:16;98781.25;;;10.11;81.28
62849;BME280;48941;49.516;8.286;2023-04-01T06:52:51;98798.38;;;10.09;81.68
62849;BME280;48941;49.516;8.286;2023-04-01T06:55:27;98783.91;;;10.11;81.88
62849;BME280;48941;49.516;8.286;2023-04-01T06:58:03;98794.56;;;10.11;82.84
62849;BME280;48941;49.516;8.286;2023-04-01T07:00:35;98800.03;;;10.10;83.55
62849;BME280;48941;49.516;8.286;2023-04-01T07:03:10;98783.38;;;10.08;83.46
62849;BME280;48941;49.516;8.286;2023-04-01T07:05:42;98798.53;;;10.07;83.98
62849;BME280;48941;49.516;8.286;2023-04-01T07:08:13;98807.56;;;10.14;82.72
62849;BME280;48941;49.516;8.286;2023-04-01T07:10:47;98789.41;;;10.18;83.22
62849;BME280;48941;49.516;8.286;2023-04-01T07:13:20;98787.19;;;10.31;82.74
62849;BME280;48941;49.516;8.286;2023-04-01T07:15:56;98793.75;;;10.19;82.34
62849;BME280;48941;49.516;8.286;2023-04-01T07:18:32;98791.94;;;10.20;82.32
62849;BME280;48941;49.516;8.286;2023-04-01T07:21:04;98786.47;;;10.21;82.52
62849;BME280;48941;49.516;8.286;2023-04-01T07:23:42;98794.59;;;10.20;81.67
62849;BME280;48941;49.516;8.286;2023-04-01T07:26:17;98784.13;;;10.26;80.76
62849;BME280;48941;49.516;8.286;2023-04-01T07:28:48;98790.63;;;10.24;81.23
62849;BME280;48941;49.516;8.286;2023-04-01T07:31:22;98786.38;;;10.31;80.68
62849;BME280;48941;49.516;8.286;2023-04-01T07:34:01;98789.03;;;10.31;80.11
62849;BME280;48941;49.516;8.286;2023-04-01T07:36:36;98785.56;;;10.39;79.50
62849;BME280;48941;49.516;8.286;2023-04-01T07:39:15;98789.72;;;10.41;79.45
62849;BME280;48941;49.516;8.286;2023-04-01T07:41:51;98792.41;;;10.49;79.27
62849;BME280;48941;49.516;8.286;2023-04-01T07:44:29;98788.44;;;10.53;78.49
62849;BME280;48941;49.516;8.286;2023-04-01T07:47:11;98795.59;;;10.53;78.38
62849;BME280;48941;49.516;8.286;2023-04-01T07:49:52;98789.25;;;10.54;78.51
62849;BME280;48941;49.516;8.286;2023-04-01T07:52:30;98794.28;;;10.57;78.45
62849;BME280;48941;49.516;8.286;2023-04-01T07:55:09;98798.44;;;10.68;78.53
62849;BME280;48941;49.516;8.286;2023-04-01T07:57:47;98792.13;;;10.61;78.79
62849;BME280;48941;49.516;8.286;2023-04-01T08:00:20;98798.41;;;10.51;79.96
62849;BME280;48941;49.516;8.286;2023-04-01T08:03:04;98801.75;;;10.62;79.73
62849;BME280;48941;49.516;8.286;2023-04-01T08:05:40;98798.78;;;10.65;80.12
62849;BME280;48941;49.516;8.286;2023-04-01T08:08:19;98796.25;;;10.55;80.61
62849;BME280;48941;49.516;8.286;2023-04-01T08:10:57;98799.63;;;10.65;81.06
62849;BME280;48941;49.516;8.286;2023-04-01T08:13:34;98796.28;;;10.71;80.98
62849;BME280;48941;49.516;8.286;2023-04-01T08:16:14;98804.44;;;10.70;81.08
62849;BME280;48941;49.516;8.286;2023-04-01T08:18:53;98805.44;;;10.69;81.64
62849;BME280;48941;49.516;8.286;2023-04-01T08:21:27;98802.44;;;10.72;81.12
62849;BME280;48941;49.516;8.286;2023-04-01T08:23:57;98810.41;;;10.64;82.20
62849;BME280;48941;49.516;8.286;2023-04-01T08:26:32;98809.59;;;10.63;82.62
62849;BME280;48941;49.516;8.286;2023-04-01T08:29:06;98803.94;;;10.66;82.62
62849;BME280;48941;49.516;8.286;2023-04-01T08:31:37;98813.75;;;10.66;82.20
62849;BME280;48941;49.516;8.286;2023-04-01T08:34:14;98812.28;;;10.71;82.28
62849;BME280;48941;49.516;8.286;2023-04-01T08:36:47;98811.09;;;10.74;82.43
62849;BME280;48941;49.516;8.286;2023-04-01T08:39:24;98821.59;;;10.75;83.16
62849;BME280;48941;49.516;8.286;2023-04-01T08:42:18;98815.97;;;10.79;82.92
62849;BME280;48941;49.516;8.286;2023-04-01T08:48:27;98820.50;;;10.94;82.93
62849;BME280;48941;49.516;8.286;2023-04-01T08:51:27;98826.50;;;10.96;83.22
62849;BME280;48941;49.516;8.286;2023-04-01T08:54:29;98826.34;;;11.14;81.27
62849;BME280;48941;49.516;8.286;2023-04-01T08:57:08;98825.84;;;11.11;82.15
62849;BME280;48941;49.516;8.286;2023-04-01T08:59:51;98829.84;;;11.07;82.43
62849;BME280;48941;49.516;8.286;2023-04-01T09:02:36;98830.50;;;11.17;82.30
62849;BME280;48941;49.516;8.286;2023-04-01T09:05:29;98839.19;;;11.19;81.53
62849;BME280;48941;49.516;8.286;2023-04-01T09:08:11;98830.00;;;11.13;82.28
62849;BME280;48941;49.516;8.286;2023-04-01T09:10:56;98833.19;;;11.17;82.06
62849;BME280;48941;49.516;8.286;2023-04-01T09:13:36;98832.16;;;11.18;81.70
62849;BME280;48941;49.516;8.286;2023-04-01T09:16:22;98840.66;;;11.22;81.54
62849;BME280;48941;49.516;8.286;2023-04-01T09:19:15;98846.34;;;11.27;81.12
62849;BME280;48941;49.516;8.286;2023-04-01T09:22:01;98848.84;;;11.28;81.51
62849;BME280;48941;49.516;8.286;2023-04-01T09:24:41;98853.84;;;11.31;81.61
62849;BME280;48941;49.516;8.286;2023-04-01T09:27:17;98848.19;;;11.34;81.54
62849;BME280;48941;49.516;8.286;2023-04-01T09:36:03;98857.69;;;11.37;81.25
62849;BME280;48941;49.516;8.286;2023-04-01T09:38:40;98857.53;;;11.39;80.96
62849;BME280;48941;49.516;8.286;2023-04-01T09:41:26;98865.53;;;11.39;80.81
62849;BME280;48941;49.516;8.286;2023-04-01T09:44:03;98865.19;;;11.42;81.30
62849;BME280;48941;49.516;8.286;2023-04-01T09:46:54;98859.84;;;11.50;80.27
62849;BME280;48941;49.516;8.286;2023-04-01T09:49:47;98865.03;;;11.51;80.76
62849;BME280;48941;49.516;8.286;2023-04-01T09:52:28;98861.38;;;11.52;81.42
62849;BME280;48941;49.516;8.286;2023-04-01T10:01:29;98870.69;;;11.65;80.71
62849;BME280;48941;49.516;8.286;2023-04-01T10:04:17;98877.19;;;11.70;81.66
62849;BME280;48941;49.516;8.286;2023-04-01T10:07:26;98871.34;;;11.75;80.64
62849;BME280;48941;49.516;8.286;2023-04-01T10:13:20;98877.34;;;11.77;80.19
62849;BME280;48941;49.516;8.286;2023-04-01T10:16:12;98875.19;;;11.81;80.73
62849;BME280;48941;49.516;8.286;2023-04-01T10:22:13;98881.34;;;11.73;80.50
62849;BME280;48941;49.516;8.286;2023-04-01T10:25:18;98881.22;;;11.91;79.00
62849;BME280;48941;49.516;8.286;2023-04-01T10:28:22;98878.84;;;11.80;80.39
62849;BME280;48941;49.516;8.286;2023-04-01T10:31:15;98886.69;;;11.81;80.65
62849;BME280;48941;49.516;8.286;2023-04-01T10:34:22;98881.84;;;11.85;80.91
62849;BME280;48941;49.516;8.286;2023-04-01T10:36:56;98875.22;;;11.89;81.19
62849;BME280;48941;49.516;8.286;2023-04-01T10:45:56;98883.38;;;11.95;80.85
62849;BME280;48941;49.516;8.286;2023-04-01T10:54:48;98875.31;;;12.12;80.35
62849;BME280;48941;49.516;8.286;2023-04-01T10:57:49;98877.31;;;12.26;79.54
62849;BME280;48941;49.516;8.286;2023-04-01T11:00:57;98878.31;;;12.25;79.85
62849;BME280;48941;49.516;8.286;2023-04-01T11:07:15;98874.91;;;12.48;76.64
62849;BME280;48941;49.516;8.286;2023-04-01T11:13:30;98874.38;;;12.61;75.19
62849;BME280;48941;49.516;8.286;2023-04-01T11:16:42;98880.91;;;12.58;75.67
62849;BME280;48941;49.516;8.286;2023-04-01T11:22:29;98894.25;;;12.58;75.44
62849;BME280;48941;49.516;8.286;2023-04-01T11:25:25;98884.44;;;12.50;75.84
62849;BME280;48941;49.516;8.286;2023-04-01T11:28:20;98878.44;;;12.48;75.77
62849;BME280;48941;49.516;8.286;2023-04-01T11:31:03;98885.13;;;12.44;76.13
62849;BME280;48941;49.516;8.286;2023-04-01T11:33:38;98896.25;;;12.48;76.16
62849;BME280;48941;49.516;8.286;2023-04-01T11:36:14;98891.13;;;12.46;76.31
62849;BME280;48941;49.516;8.286;2023-04-01T11:38:57;98893.59;;;12.48;75.33
62849;BME280;48941;49.516;8.286;2023-04-01T11:41:35;98906.25;;;12.54;74.52
62849;BME280;48941;49.516;8.286;2023-04-01T11:44:16;98896.09;;;12.49;74.77
62849;BME280;48941;49.516;8.286;2023-04-01T11:46:56;98892.78;;;12.47;75.43
62849;BME280;48941;49.516;8.286;2023-04-01T11:49:45;98895.09;;;12.50;74.96
62849;BME280;48941;49.516;8.286;2023-04-01T11:52:32;98898.91;;;12.56;75.30
62849;BME280;48941;49.516;8.286;2023-04-01T11:55:18;98905.75;;;12.59;74.34
62849;BME280;48941;49.516;8.286;2023-04-01T11:57:56;98901.56;;;12.56;74.30
62849;BME280;48941;49.516;8.286;2023-04-01T12:00:52;98910.28;;;12.58;74.27
62849;BME280;48941;49.516;8.286;2023-04-01T12:03:41;98902.25;;;12.58;73.92
62849;BME280;48941;49.516;8.286;2023-04-01T12:06:19;98901.09;;;12.61;74.28
62849;BME280;48941;49.516;8.286;2023-04-01T12:08:55;98915.91;;;12.63;73.41
62849;BME280;48941;49.516;8.286;2023-04-01T12:11:34;98917.78;;;12.63;73.17
62849;BME280;48941;49.516;8.286;2023-04-01T12:14:14;98922.75;;;12.66;73.70
62849;BME280;48941;49.516;8.286;2023-04-01T12:16:52;98913.25;;;12.63;73.25
62849;BME280;48941;49.516;8.286;2023-04-01T12:19:29;98910.38;;;12.73;73.12
62849;BME280;48941;49.516;8.286;2023-04-01T12:22:14;98915.03;;;12.79;72.69
62849;BME280;48941;49.516;8.286;2023-04-01T12:24:46;98926.69;;;12.86;72.80
62849;BME280;48941;49.516;8.286;2023-04-01T12:27:26;98926.22;;;12.83;73.68
62849;BME280;48941;49.516;8.286;2023-04-01T12:30:30;98922.72;;;12.82;73.65
62849;BME280;48941;49.516;8.286;2023-04-01T12:35:58;98916.31;;;12.91;72.15
62849;BME280;48941;49.516;8.286;2023-04-01T12:38:38;98926.97;;;13.00;71.80
62849;BME280;48941;49.516;8.286;2023-04-01T12:41:14;98933.53;;;12.89;72.58
62849;BME280;48941;49.516;8.286;2023-04-01T12:44:07;98930.84;;;12.89;73.85
62849;BME280;48941;49.516;8.286;2023-04-01T12:46:54;98928.03;;;12.90;73.46
62849;BME280;48941;49.516;8.286;2023-04-01T12:49:45;98922.47;;;13.00;72.36
62849;BME280;48941;49.516;8.286;2023-04-01T12:52:19;98935.84;;;13.00;72.22
62849;BME280;48941;49.516;8.286;2023-04-01T12:58:23;98938.31;;;13.02;72.44
62849;BME280;48941;49.516;8.286;2023-04-01T13:01:19;98936.00;;;12.99;72.55
62849;BME280;48941;49.516;8.286;2023-04-01T13:07:21;98950.22;;;12.91;72.74
62849;BME280;48941;49.516;8.286;2023-04-01T13:09:56;98954.09;;;12.88;73.18
62849;BME280;48941;49.516;8.286;2023-04-01T13:15:43;98966.47;;;12.73;74.51
62849;BME280;48941;49.516;8.286;2023-04-01T13:18:24;98959.31;;;12.65;75.40
62849;BME280;48941;49.516;8.286;2023-04-01T13:21:02;98959.84;;;12.61;75.90
62849;BME280;48941;49.516;8.286;2023-04-01T13:23:39;98958.34;;;12.58;75.71
62849;BME280;48941;49.516;8.286;2023-04-01T13:26:18;98958.34;;;12.58;75.93
62849;BME280;48941;49.516;8.286;2023-04-01T13:28:52;98968.53;;;12.54;74.63
62849;BME280;48941;49.516;8.286;2023-04-01T13:31:29;98974.38;;;12.58;75.29
62849;BME280;48941;49.516;8.286;2023-04-01T13:34:13;98976.34;;;12.56;76.67
62849;BME280;48941;49.516;8.286;2023-04-01T13:36:51;98971.50;;;12.60;75.85
62849;BME280;48941;49.516;8.286;2023-04-01T13:39:29;98980.53;;;12.59;75.62
62849;BME280;48941;49.516;8.286;2023-04-01T13:42:12;98979.03;;;12.64;74.16
62849;BME280;48941;49.516;8.286;2023-04-01T13:44:45;98973.00;;;12.70;73.15
62849;BME280;48941;49.516;8.286;2023-04-01T13:47:24;98975.69;;;12.70;73.47
62849;BME280;48941;49.516;8.286;2023-04-01T13:50:34;98981.03;;;12.62;73.41
62849;BME280;48941;49.516;8.286;2023-04-01T13:53:26;98979.88;;;12.65;73.46
62849;BME280;48941;49.516;8.286;2023-04-01T13:56:22;98994.56;;;12.61;73.26
62849;BME280;48941;49.516;8.286;2023-04-01T13:59:03;98990.03;;;12.61;73.94
62849;BME280;48941;49.516;8.286;2023-04-01T14:01:41;98994.06;;;12.57;74.23
62849;BME280;48941;49.516;8.286;2023-04-01T14:04:33;99001.25;;;12.57;75.65
62849;BME280;48941;49.516;8.286;2023-04-01T14:07:31;99008.59;;;12.63;72.88
62849;BME280;48941;49.516;8.286;2023-04-01T14:10:13;99003.41;;;12.53;73.34
62849;BME280;48941;49.516;8.286;2023-04-01T14:12:48;99006.78;;;12.47;74.22
62849;BME280;48941;49.516;8.286;2023-04-01T14:15:52;99005.06;;;12.54;73.80
62849;BME280;48941;49.516;8.286;2023-04-01T14:18:37;98998.59;;;12.57;73.96
62849;BME280;48941;49.516;8.286;2023-04-01T14:21:25;99010.44;;;12.46;75.16
62849;BME280;48941;49.516;8.286;2023-04-01T14:27:09;99013.44;;;12.51;73.46
62849;BME280;48941;49.516;8.286;2023-04-01T14:29:52;99008.25;;;12.49;72.58
62849;BME280;48941;49.516;8.286;2023-04-01T14:32:28;99004.75;;;12.49;73.27
62849;BME280;48941;49.516;8.286;2023-04-01T14:35:15;99006.75;;;12.55;72.50
62849;BME280;48941;49.516;8.286;2023-04-01T14:38:02;99005.72;;;12.56;71.96
62849;BME280;48941;49.516;8.286;2023-04-01T14:40:46;99009.94;;;12.59;72.64
62849;BME280;48941;49.516;8.286;2023-04-01T14:43:58;99014.06;;;12.69;70.91
62849;BME280;48941;49.516;8.286;2023-04-01T14:46:47;99016.44;;;12.64;72.38
62849;BME280;48941;49.516;8.286;2023-04-01T14:49:22;99015.41;;;12.65;70.88
62849;BME280;48941;49.516;8.286;2023-04-01T14:51:53;99020.09;;;12.63;71.64
62849;BME280;48941;49.516;8.286;2023-04-01T14:54:31;99018.75;;;12.59;71.70
62849;BME280;48941;49.516;8.286;2023-04-01T14:57:09;99024.78;;;12.61;70.68